createdAt,value
2018-12-14T00:07:06.000Z,24.34
2018-12-14T00:17:06.000Z,24.33
2018-12-14T00:27:06.000Z,24.27
2018-12-14T00:37:06.000Z,24.25
2018-12-14T00:47:06.000Z,24.21
2018-12-14T00:57:07.000Z,24.18
2018-12-14T01:07:08.000Z,24.14
2018-12-14T01:17:06.000Z,24.14
2018-12-14T01:27:06.000Z,24.11
2018-12-14T01:37:06.000Z,24.06
2018-12-14T01:47:07.000Z,24.04
2018-12-14T01:57:06.000Z,24.01
2018-12-14T02:07:06.000Z,23.98
2018-12-14T02:17:06.000Z,23.86
2018-12-14T02:27:07.000Z,23.875
2018-12-14T02:37:06.000Z,23.68
2018-12-14T02:47:06.000Z,23.78
2018-12-14T02:57:06.000Z,23.76
2018-12-14T03:07:06.000Z,23.75
2018-12-14T03:17:06.000Z,23.69
2018-12-14T03:27:06.000Z,23.66
2018-12-14T03:37:06.000Z,23.69
2018-12-14T03:47:06.000Z,23.67
2018-12-14T03:57:06.000Z,23.63
2018-12-14T04:07:06.000Z,23.63
2018-12-14T04:17:06.000Z,23.63
2018-12-14T04:27:06.000Z,23.54
2018-12-14T04:37:06.000Z,23.58
2018-12-14T04:47:06.000Z,23.56
2018-12-14T04:57:06.000Z,23.54
2018-12-14T05:07:06.000Z,23.6
2018-12-14T05:17:06.000Z,23.6
2018-12-14T05:27:06.000Z,23.65
2018-12-14T05:37:06.000Z,23.71
2018-12-14T05:47:06.000Z,23.66
2018-12-14T05:57:06.000Z,23.64
2018-12-14T06:07:06.000Z,23.57
2018-12-14T06:17:07.000Z,23.6
2018-12-14T06:27:07.000Z,23.56
2018-12-14T06:37:07.000Z,23.5
2018-12-14T06:47:07.000Z,23.5
2018-12-14T06:57:07.000Z,23.51
2018-12-14T07:07:07.000Z,23.51
2018-12-14T07:17:07.000Z,23.46
2018-12-14T07:27:07.000Z,23.12
2018-12-14T07:37:07.000Z,23.04
2018-12-14T07:47:07.000Z,23.41
2018-12-14T07:57:07.000Z,23.06
2018-12-14T08:07:07.000Z,23.13
2018-12-14T08:17:07.000Z,22.89
2018-12-14T08:27:07.000Z,22.96
2018-12-14T08:37:07.000Z,22.99
2018-12-14T08:47:07.000Z,22.97
2018-12-14T08:57:07.000Z,23.03
2018-12-14T09:07:07.000Z,23.18
2018-12-14T09:17:07.000Z,23.32
2018-12-14T09:27:07.000Z,23.45
2018-12-14T09:37:07.000Z,23.53
2018-12-14T09:47:07.000Z,23.48
2018-12-14T09:57:07.000Z,23.72
2018-12-14T10:07:07.000Z,23.83
2018-12-14T10:17:07.000Z,24.11
2018-12-14T10:27:07.000Z,23.93
2018-12-14T10:37:07.000Z,23.83
2018-12-14T10:47:07.000Z,23.8
2018-12-14T10:57:07.000Z,23.76
2018-12-14T11:07:07.000Z,23.74
2018-12-14T11:17:07.000Z,23.73
2018-12-14T11:27:07.000Z,23.78
2018-12-14T11:37:07.000Z,23.78
2018-12-14T11:47:07.000Z,23.76
2018-12-14T11:57:07.000Z,23.75
2018-12-14T12:07:07.000Z,23.68
2018-12-14T12:17:07.000Z,23.68
2018-12-14T12:27:07.000Z,23.61
2018-12-14T12:37:07.000Z,23.6
2018-12-14T12:47:08.000Z,23.65
2018-12-14T12:57:07.000Z,23.63
2018-12-14T13:07:07.000Z,23.64
2018-12-14T13:17:07.000Z,23.64
2018-12-14T13:27:07.000Z,23.64
2018-12-14T13:37:07.000Z,23.64
2018-12-14T13:47:07.000Z,23.63
2018-12-14T13:57:08.000Z,23.64
2018-12-14T14:07:07.000Z,23.63
2018-12-14T14:17:07.000Z,23.64
2018-12-14T14:27:08.000Z,23.59
2018-12-14T14:37:08.000Z,23.66
2018-12-14T14:47:08.000Z,23.61
2018-12-14T14:57:08.000Z,23.64
2018-12-14T15:07:08.000Z,23.65
2018-12-14T15:17:08.000Z,23.68
2018-12-14T15:27:08.000Z,23.66
2018-12-14T15:37:08.000Z,23.65
2018-12-14T15:47:08.000Z,23.62
2018-12-14T15:57:08.000Z,23.71
2018-12-14T16:07:08.000Z,23.7
2018-12-14T16:17:08.000Z,23.98
2018-12-14T16:27:08.000Z,23.79
2018-12-14T16:37:08.000Z,24
2018-12-14T16:47:08.000Z,24.07
2018-12-14T16:57:08.000Z,24.28
2018-12-14T17:07:08.000Z,24.09
2018-12-14T17:17:08.000Z,24.23
2018-12-14T17:27:08.000Z,24.11
2018-12-14T17:37:08.000Z,24.26
2018-12-14T17:47:08.000Z,24.3
2018-12-14T17:57:08.000Z,24.08
2018-12-14T18:07:08.000Z,23.91
2018-12-14T18:17:08.000Z,24.13
2018-12-14T18:27:08.000Z,24.05
2018-12-14T18:37:08.000Z,24.03
2018-12-14T18:47:08.000Z,23.86
2018-12-14T18:57:08.000Z,23.82
2018-12-14T19:07:08.000Z,23.79
2018-12-14T19:17:08.000Z,23.85
2018-12-14T19:27:08.000Z,23.82
2018-12-14T19:37:08.000Z,23.83
2018-12-14T19:47:08.000Z,23.71
2018-12-14T19:57:08.000Z,23.8
2018-12-14T20:07:08.000Z,23.83
2018-12-14T20:17:08.000Z,23.8
2018-12-14T20:27:08.000Z,23.83
2018-12-14T20:37:08.000Z,23.78
2018-12-14T20:47:08.000Z,23.77
2018-12-14T20:57:10.000Z,23.78
2018-12-14T21:07:08.000Z,23.77
2018-12-14T21:17:08.000Z,23.86
2018-12-14T21:27:08.000Z,23.93
2018-12-14T21:37:08.000Z,24.02
2018-12-14T21:47:08.000Z,23.97
2018-12-14T22:07:10.000Z,24.05
2018-12-14T22:17:08.000Z,24.02
2018-12-14T22:27:09.000Z,24.02
2018-12-14T22:37:09.000Z,24.04
2018-12-14T22:47:09.000Z,24.01
2018-12-14T22:57:09.000Z,24.02
2018-12-14T23:07:09.000Z,24.05
2018-12-14T23:17:09.000Z,24.08
2018-12-14T23:27:09.000Z,24.03
2018-12-14T23:37:09.000Z,23.97
2018-12-14T23:47:09.000Z,23.93
2018-12-14T23:57:09.000Z,23.82
